X  Close Metar Aviation Weather Data     EBBR Brussels Airport
Temperature
20°C Temperature
8°C Dewpoint
46% Humidity



Wind
16 KM/H
10 MPH
4 M/S
9 KTS



250°
WSW
Current Conditions

Clear Clear
Pressure 1011.92 (hPa) - 29.88 (inHg)
Visibility 6.2 (mile) - 10 (km)
Airport
Airport-code EBBR

Location: Brussels Airport
Distance: 14 (km)

Metar:
EBBR 291720Z 25009KT CAVOK 20/08 Q1012 NOSIG

Time: 07-29-2021 19:20 CEST